sensor_id;sensor_type;location;lat;lon;timestamp;pressure;altitude;pressure_sealevel;temperature
64916;BMP280;51427;-27.442;153.014;2023-08-24T00:01:58;102536.88;;;22.09
64916;BMP280;51427;-27.442;153.014;2023-08-24T00:04:25;102526.03;;;22.84
64916;BMP280;51427;-27.442;153.014;2023-08-24T00:06:53;102520.78;;;23.49
64916;BMP280;51427;-27.442;153.014;2023-08-24T00:09:20;102520.69;;;23.38
64916;BMP280;51427;-27.442;153.014;2023-08-24T00:11:48;102520.97;;;23.21
64916;BMP280;51427;-27.442;153.014;2023-08-24T00:14:15;102505.88;;;22.80
64916;BMP280;51427;-27.442;153.014;2023-08-24T00:16:42;102507.94;;;22.75
64916;BMP280;51427;-27.442;153.014;2023-08-24T00:19:10;102515.19;;;22.42
64916;BMP280;51427;-27.442;153.014;2023-08-24T00:21:37;102500.91;;;23.53
64916;BMP280;51427;-27.442;153.014;2023-08-24T00:24:05;102500.84;;;23.05
64916;BMP280;51427;-27.442;153.014;2023-08-24T00:26:32;102501.47;;;23.20
64916;BMP280;51427;-27.442;153.014;2023-08-24T00:28:59;102495.03;;;22.64
64916;BMP280;51427;-27.442;153.014;2023-08-24T00:31:26;102480.47;;;23.65
64916;BMP280;51427;-27.442;153.014;2023-08-24T00:33:54;102481.13;;;23.19
64916;BMP280;51427;-27.442;153.014;2023-08-24T00:36:21;102472.47;;;23.82
64916;BMP280;51427;-27.442;153.014;2023-08-24T00:38:49;102476.75;;;22.05
64916;BMP280;51427;-27.442;153.014;2023-08-24T00:41:17;102476.66;;;22.59
64916;BMP280;51427;-27.442;153.014;2023-08-24T00:43:45;102469.56;;;22.89
64916;BMP280;51427;-27.442;153.014;2023-08-24T00:46:13;102464.25;;;23.41
64916;BMP280;51427;-27.442;153.014;2023-08-24T00:48:40;102473.84;;;23.25
64916;BMP280;51427;-27.442;153.014;2023-08-24T00:51:08;102468.00;;;22.86
64916;BMP280;51427;-27.442;153.014;2023-08-24T00:53:35;102447.03;;;23.68
64916;BMP280;51427;-27.442;153.014;2023-08-24T00:56:04;102460.66;;;23.44
64916;BMP280;51427;-27.442;153.014;2023-08-24T00:58:32;102446.00;;;23.58
64916;BMP280;51427;-27.442;153.014;2023-08-24T01:01:00;102437.41;;;22.99
64916;BMP280;51427;-27.442;153.014;2023-08-24T01:03:27;102427.88;;;23.25
64916;BMP280;51427;-27.442;153.014;2023-08-24T01:05:55;102436.09;;;23.06
64916;BMP280;51427;-27.442;153.014;2023-08-24T01:08:22;102426.28;;;23.60
64916;BMP280;51427;-27.442;153.014;2023-08-24T01:11:32;102428.31;;;22.82
64916;BMP280;51427;-27.442;153.014;2023-08-24T01:16:58;102407.16;;;24.12
64916;BMP280;51427;-27.442;153.014;2023-08-24T01:19:37;102412.13;;;24.03
64916;BMP280;51427;-27.442;153.014;2023-08-24T01:27:34;102394.19;;;22.96
64916;BMP280;51427;-27.442;153.014;2023-08-24T01:30:02;102398.16;;;23.60
64916;BMP280;51427;-27.442;153.014;2023-08-24T01:32:33;102391.66;;;24.03
64916;BMP280;51427;-27.442;153.014;2023-08-24T01:35:08;102382.38;;;24.47
64916;BMP280;51427;-27.442;153.014;2023-08-24T01:37:36;102386.72;;;23.89
64916;BMP280;51427;-27.442;153.014;2023-08-24T01:40:06;102379.84;;;23.89
64916;BMP280;51427;-27.442;153.014;2023-08-24T01:45:28;102375.78;;;24.21
64916;BMP280;51427;-27.442;153.014;2023-08-24T01:47:56;102363.69;;;24.90
64916;BMP280;51427;-27.442;153.014;2023-08-24T01:50:24;102366.47;;;24.87
64916;BMP280;51427;-27.442;153.014;2023-08-24T01:52:52;102371.47;;;24.56
64916;BMP280;51427;-27.442;153.014;2023-08-24T01:55:20;102364.88;;;24.86
64916;BMP280;51427;-27.442;153.014;2023-08-24T01:57:48;102360.47;;;24.99
64916;BMP280;51427;-27.442;153.014;2023-08-24T02:00:16;102354.97;;;25.25
64916;BMP280;51427;-27.442;153.014;2023-08-24T02:02:44;102352.81;;;23.98
64916;BMP280;51427;-27.442;153.014;2023-08-24T02:05:11;102361.00;;;23.44
64916;BMP280;51427;-27.442;153.014;2023-08-24T02:07:39;102349.03;;;23.91
64916;BMP280;51427;-27.442;153.014;2023-08-24T02:10:07;102342.31;;;23.90
64916;BMP280;51427;-27.442;153.014;2023-08-24T02:12:34;102332.97;;;23.78
64916;BMP280;51427;-27.442;153.014;2023-08-24T02:15:01;102331.47;;;23.17
64916;BMP280;51427;-27.442;153.014;2023-08-24T02:17:29;102341.44;;;23.32
64916;BMP280;51427;-27.442;153.014;2023-08-24T02:19:56;102322.06;;;23.17
64916;BMP280;51427;-27.442;153.014;2023-08-24T02:22:23;102327.16;;;24.10
64916;BMP280;51427;-27.442;153.014;2023-08-24T02:24:50;102322.88;;;24.21
64916;BMP280;51427;-27.442;153.014;2023-08-24T02:27:18;102317.63;;;24.23
64916;BMP280;51427;-27.442;153.014;2023-08-24T02:29:45;102306.19;;;24.39
64916;BMP280;51427;-27.442;153.014;2023-08-24T02:32:12;102313.28;;;23.44
64916;BMP280;51427;-27.442;153.014;2023-08-24T02:34:40;102309.72;;;22.99
64916;BMP280;51427;-27.442;153.014;2023-08-24T02:37:07;102298.09;;;23.30
64916;BMP280;51427;-27.442;153.014;2023-08-24T02:39:34;102310.53;;;23.12
64916;BMP280;51427;-27.442;153.014;2023-08-24T02:42:02;102309.28;;;23.17
64916;BMP280;51427;-27.442;153.014;2023-08-24T02:44:29;102298.41;;;23.96
64916;BMP280;51427;-27.442;153.014;2023-08-24T02:46:57;102300.25;;;23.94
64916;BMP280;51427;-27.442;153.014;2023-08-24T02:49:24;102287.56;;;24.48
64916;BMP280;51427;-27.442;153.014;2023-08-24T02:51:52;102290.44;;;23.30
64916;BMP280;51427;-27.442;153.014;2023-08-24T02:54:19;102289.06;;;23.37
64916;BMP280;51427;-27.442;153.014;2023-08-24T02:56:46;102284.00;;;23.25
64916;BMP280;51427;-27.442;153.014;2023-08-24T02:59:13;102288.34;;;23.71
64916;BMP280;51427;-27.442;153.014;2023-08-24T03:01:41;102284.84;;;23.13
64916;BMP280;51427;-27.442;153.014;2023-08-24T03:04:08;102273.34;;;23.08
64916;BMP280;51427;-27.442;153.014;2023-08-24T03:06:35;102277.38;;;22.99
64916;BMP280;51427;-27.442;153.014;2023-08-24T03:09:02;102279.41;;;22.94
64916;BMP280;51427;-27.442;153.014;2023-08-24T03:11:32;102270.00;;;23.07
64916;BMP280;51427;-27.442;153.014;2023-08-24T03:13:59;102267.16;;;22.99
64916;BMP280;51427;-27.442;153.014;2023-08-24T03:16:27;102268.38;;;22.94
64916;BMP280;51427;-27.442;153.014;2023-08-24T03:18:54;102262.25;;;22.84
64916;BMP280;51427;-27.442;153.014;2023-08-24T03:21:21;102255.16;;;22.64
64916;BMP280;51427;-27.442;153.014;2023-08-24T03:23:48;102253.72;;;22.35
64916;BMP280;51427;-27.442;153.014;2023-08-24T03:26:16;102262.72;;;22.53
64916;BMP280;51427;-27.442;153.014;2023-08-24T03:28:43;102263.94;;;23.08
64916;BMP280;51427;-27.442;153.014;2023-08-24T03:31:10;102254.56;;;23.32
64916;BMP280;51427;-27.442;153.014;2023-08-24T03:33:37;102269.19;;;22.82
64916;BMP280;51427;-27.442;153.014;2023-08-24T03:36:05;102272.66;;;23.52
64916;BMP280;51427;-27.442;153.014;2023-08-24T03:38:32;102251.16;;;23.08
64916;BMP280;51427;-27.442;153.014;2023-08-24T03:41:03;102255.31;;;23.68
64916;BMP280;51427;-27.442;153.014;2023-08-24T03:43:32;102248.25;;;23.48
64916;BMP280;51427;-27.442;153.014;2023-08-24T03:46:01;102243.97;;;23.94
64916;BMP280;51427;-27.442;153.014;2023-08-24T03:48:30;102245.84;;;23.58
64916;BMP280;51427;-27.442;153.014;2023-08-24T03:50:58;102234.69;;;23.82
64916;BMP280;51427;-27.442;153.014;2023-08-24T03:53:25;102244.00;;;23.13
64916;BMP280;51427;-27.442;153.014;2023-08-24T03:55:53;102238.84;;;23.25
64916;BMP280;51427;-27.442;153.014;2023-08-24T03:58:21;102231.00;;;23.39
64916;BMP280;51427;-27.442;153.014;2023-08-24T04:00:48;102232.13;;;23.59
64916;BMP280;51427;-27.442;153.014;2023-08-24T04:03:15;102229.13;;;23.30
64916;BMP280;51427;-27.442;153.014;2023-08-24T04:05:43;102221.78;;;23.83
64916;BMP280;51427;-27.442;153.014;2023-08-24T04:08:10;102226.41;;;23.44
64916;BMP280;51427;-27.442;153.014;2023-08-24T04:10:37;102233.06;;;23.34
64916;BMP280;51427;-27.442;153.014;2023-08-24T04:13:05;102218.03;;;23.53
64916;BMP280;51427;-27.442;153.014;2023-08-24T04:15:32;102213.25;;;23.72
64916;BMP280;51427;-27.442;153.014;2023-08-24T04:17:59;102219.50;;;23.34
64916;BMP280;51427;-27.442;153.014;2023-08-24T04:20:26;102206.28;;;23.40
64916;BMP280;51427;-27.442;153.014;2023-08-24T04:22:54;102214.31;;;23.69
64916;BMP280;51427;-27.442;153.014;2023-08-24T04:25:22;102216.75;;;23.71
64916;BMP280;51427;-27.442;153.014;2023-08-24T04:27:50;102197.72;;;23.97
64916;BMP280;51427;-27.442;153.014;2023-08-24T04:30:17;102195.59;;;23.80
64916;BMP280;51427;-27.442;153.014;2023-08-24T04:32:44;102199.38;;;23.98
64916;BMP280;51427;-27.442;153.014;2023-08-24T04:35:11;102202.03;;;23.85
64916;BMP280;51427;-27.442;153.014;2023-08-24T04:37:39;102200.22;;;23.64
64916;BMP280;51427;-27.442;153.014;2023-08-24T04:40:07;102208.53;;;23.44
64916;BMP280;51427;-27.442;153.014;2023-08-24T04:42:34;102202.28;;;23.59
64916;BMP280;51427;-27.442;153.014;2023-08-24T04:45:01;102209.59;;;23.29
64916;BMP280;51427;-27.442;153.014;2023-08-24T04:47:29;102201.19;;;23.74
64916;BMP280;51427;-27.442;153.014;2023-08-24T04:49:56;102197.25;;;23.81
64916;BMP280;51427;-27.442;153.014;2023-08-24T04:52:23;102187.50;;;23.52
64916;BMP280;51427;-27.442;153.014;2023-08-24T04:54:50;102190.19;;;23.04
64916;BMP280;51427;-27.442;153.014;2023-08-24T04:57:18;102200.09;;;23.08
64916;BMP280;51427;-27.442;153.014;2023-08-24T04:59:45;102198.31;;;23.21
64916;BMP280;51427;-27.442;153.014;2023-08-24T05:02:12;102195.78;;;22.98
64916;BMP280;51427;-27.442;153.014;2023-08-24T05:04:40;102188.72;;;23.35
64916;BMP280;51427;-27.442;153.014;2023-08-24T05:07:07;102196.38;;;22.89
64916;BMP280;51427;-27.442;153.014;2023-08-24T05:09:34;102196.94;;;23.28
64916;BMP280;51427;-27.442;153.014;2023-08-24T05:12:02;102200.50;;;22.79
64916;BMP280;51427;-27.442;153.014;2023-08-24T05:14:29;102200.13;;;22.60
64916;BMP280;51427;-27.442;153.014;2023-08-24T05:16:56;102189.56;;;22.77
64916;BMP280;51427;-27.442;153.014;2023-08-24T05:19:23;102193.63;;;22.56
64916;BMP280;51427;-27.442;153.014;2023-08-24T05:21:50;102193.75;;;22.78
64916;BMP280;51427;-27.442;153.014;2023-08-24T05:24:18;102193.94;;;22.87
64916;BMP280;51427;-27.442;153.014;2023-08-24T05:26:45;102191.97;;;22.91
64916;BMP280;51427;-27.442;153.014;2023-08-24T05:29:12;102194.03;;;22.86
64916;BMP280;51427;-27.442;153.014;2023-08-24T05:31:39;102198.91;;;22.66
64916;BMP280;51427;-27.442;153.014;2023-08-24T05:34:06;102193.13;;;22.87
64916;BMP280;51427;-27.442;153.014;2023-08-24T05:36:33;102196.41;;;23.12
64916;BMP280;51427;-27.442;153.014;2023-08-24T05:39:01;102193.97;;;22.75
64916;BMP280;51427;-27.442;153.014;2023-08-24T05:41:28;102199.19;;;22.73
64916;BMP280;51427;-27.442;153.014;2023-08-24T05:43:55;102204.06;;;22.76
64916;BMP280;51427;-27.442;153.014;2023-08-24T05:46:23;102208.31;;;22.65
64916;BMP280;51427;-27.442;153.014;2023-08-24T05:48:50;102208.94;;;22.19
64916;BMP280;51427;-27.442;153.014;2023-08-24T05:51:17;102205.06;;;22.14
64916;BMP280;51427;-27.442;153.014;2023-08-24T05:53:45;102201.09;;;22.10
64916;BMP280;51427;-27.442;153.014;2023-08-24T05:56:12;102207.53;;;22.27
64916;BMP280;51427;-27.442;153.014;2023-08-24T05:58:39;102210.41;;;22.23
64916;BMP280;51427;-27.442;153.014;2023-08-24T06:01:06;102212.81;;;22.37
64916;BMP280;51427;-27.442;153.014;2023-08-24T06:03:34;102206.59;;;22.41
64916;BMP280;51427;-27.442;153.014;2023-08-24T06:06:02;102205.72;;;22.29
64916;BMP280;51427;-27.442;153.014;2023-08-24T06:08:30;102206.59;;;22.53
64916;BMP280;51427;-27.442;153.014;2023-08-24T06:10:57;102205.50;;;22.68
64916;BMP280;51427;-27.442;153.014;2023-08-24T06:13:25;102217.81;;;22.38
64916;BMP280;51427;-27.442;153.014;2023-08-24T06:15:54;102211.50;;;22.31
64916;BMP280;51427;-27.442;153.014;2023-08-24T06:18:21;102212.13;;;22.35
64916;BMP280;51427;-27.442;153.014;2023-08-24T06:20:48;102217.63;;;22.29
64916;BMP280;51427;-27.442;153.014;2023-08-24T06:23:18;102222.31;;;22.23
64916;BMP280;51427;-27.442;153.014;2023-08-24T06:25:45;102218.94;;;22.10
64916;BMP280;51427;-27.442;153.014;2023-08-24T06:28:13;102232.78;;;21.81
64916;BMP280;51427;-27.442;153.014;2023-08-24T06:30:41;102219.44;;;21.90
64916;BMP280;51427;-27.442;153.014;2023-08-24T06:33:10;102235.13;;;21.84
64916;BMP280;51427;-27.442;153.014;2023-08-24T06:35:37;102235.19;;;21.70
64916;BMP280;51427;-27.442;153.014;2023-08-24T06:38:05;102242.03;;;21.70
64916;BMP280;51427;-27.442;153.014;2023-08-24T06:40:32;102236.72;;;21.60
64916;BMP280;51427;-27.442;153.014;2023-08-24T06:42:59;102245.59;;;21.41
64916;BMP280;51427;-27.442;153.014;2023-08-24T06:45:27;102244.59;;;21.43
64916;BMP280;51427;-27.442;153.014;2023-08-24T06:47:54;102256.59;;;21.41
64916;BMP280;51427;-27.442;153.014;2023-08-24T06:50:21;102271.94;;;21.28
64916;BMP280;51427;-27.442;153.014;2023-08-24T06:52:48;102258.69;;;21.23
64916;BMP280;51427;-27.442;153.014;2023-08-24T06:55:15;102264.66;;;21.22
64916;BMP280;51427;-27.442;153.014;2023-08-24T06:57:48;102273.53;;;21.16
64916;BMP280;51427;-27.442;153.014;2023-08-24T07:00:19;102273.25;;;21.21
64916;BMP280;51427;-27.442;153.014;2023-08-24T07:02:47;102292.34;;;21.14
64916;BMP280;51427;-27.442;153.014;2023-08-24T07:05:14;102289.25;;;21.09
64916;BMP280;51427;-27.442;153.014;2023-08-24T07:07:45;102287.63;;;20.94
64916;BMP280;51427;-27.442;153.014;2023-08-24T07:10:13;102296.56;;;20.73
64916;BMP280;51427;-27.442;153.014;2023-08-24T07:12:41;102306.13;;;20.70
64916;BMP280;51427;-27.442;153.014;2023-08-24T07:15:08;102303.81;;;20.65
64916;BMP280;51427;-27.442;153.014;2023-08-24T07:17:36;102307.63;;;20.58
64916;BMP280;51427;-27.442;153.014;2023-08-24T07:20:04;102313.72;;;20.56
64916;BMP280;51427;-27.442;153.014;2023-08-24T07:22:33;102322.13;;;20.42
64916;BMP280;51427;-27.442;153.014;2023-08-24T07:25:00;102320.78;;;20.37
64916;BMP280;51427;-27.442;153.014;2023-08-24T07:27:34;102333.56;;;20.36
64916;BMP280;51427;-27.442;153.014;2023-08-24T07:30:02;102337.94;;;20.34
64916;BMP280;51427;-27.442;153.014;2023-08-24T07:32:32;102349.94;;;20.16
64916;BMP280;51427;-27.442;153.014;2023-08-24T07:34:59;102348.75;;;20.08
64916;BMP280;51427;-27.442;153.014;2023-08-24T07:37:28;102352.63;;;19.99
64916;BMP280;51427;-27.442;153.014;2023-08-24T07:39:55;102356.97;;;19.98
64916;BMP280;51427;-27.442;153.014;2023-08-24T07:42:22;102365.44;;;19.98
64916;BMP280;51427;-27.442;153.014;2023-08-24T07:44:50;102366.72;;;19.90
64916;BMP280;51427;-27.442;153.014;2023-08-24T07:47:17;102376.38;;;19.83
64916;BMP280;51427;-27.442;153.014;2023-08-24T07:49:47;102380.03;;;19.79
64916;BMP280;51427;-27.442;153.014;2023-08-24T07:52:15;102374.94;;;19.79
64916;BMP280;51427;-27.442;153.014;2023-08-24T07:54:43;102382.81;;;19.75
64916;BMP280;51427;-27.442;153.014;2023-08-24T07:57:11;102374.63;;;19.70
64916;BMP280;51427;-27.442;153.014;2023-08-24T07:59:38;102387.41;;;19.68
64916;BMP280;51427;-27.442;153.014;2023-08-24T08:02:05;102392.47;;;19.68
64916;BMP280;51427;-27.442;153.014;2023-08-24T08:04:32;102401.97;;;19.65
64916;BMP280;51427;-27.442;153.014;2023-08-24T08:07:02;102391.88;;;19.63
64916;BMP280;51427;-27.442;153.014;2023-08-24T08:09:30;102386.72;;;19.65
64916;BMP280;51427;-27.442;153.014;2023-08-24T08:12:03;102393.53;;;19.64
64916;BMP280;51427;-27.442;153.014;2023-08-24T08:14:31;102397.13;;;19.60
64916;BMP280;51427;-27.442;153.014;2023-08-24T08:16:58;102397.06;;;19.47
64916;BMP280;51427;-27.442;153.014;2023-08-24T08:19:25;102401.06;;;19.51
64916;BMP280;51427;-27.442;153.014;2023-08-24T08:21:54;102406.63;;;19.42
64916;BMP280;51427;-27.442;153.014;2023-08-24T08:24:21;102409.00;;;19.45
64916;BMP280;51427;-27.442;153.014;2023-08-24T08:26:48;102417.84;;;19.38
64916;BMP280;51427;-27.442;153.014;2023-08-24T08:29:15;102418.00;;;19.35
64916;BMP280;51427;-27.442;153.014;2023-08-24T08:31:43;102414.66;;;19.34
64916;BMP280;51427;-27.442;153.014;2023-08-24T08:34:10;102411.59;;;19.28
64916;BMP280;51427;-27.442;153.014;2023-08-24T08:36:42;102417.19;;;19.34
64916;BMP280;51427;-27.442;153.014;2023-08-24T08:39:09;102431.47;;;19.20
64916;BMP280;51427;-27.442;153.014;2023-08-24T08:41:43;102425.03;;;19.30
64916;BMP280;51427;-27.442;153.014;2023-08-24T08:44:13;102436.88;;;19.14
64916;BMP280;51427;-27.442;153.014;2023-08-24T08:46:42;102434.34;;;19.14
64916;BMP280;51427;-27.442;153.014;2023-08-24T08:49:11;102442.53;;;19.19
64916;BMP280;51427;-27.442;153.014;2023-08-24T08:51:42;102442.84;;;19.13
64916;BMP280;51427;-27.442;153.014;2023-08-24T08:54:09;102448.22;;;19.07
64916;BMP280;51427;-27.442;153.014;2023-08-24T08:56:37;102443.66;;;19.13
64916;BMP280;51427;-27.442;153.014;2023-08-24T08:59:07;102453.38;;;19.06
64916;BMP280;51427;-27.442;153.014;2023-08-24T09:01:36;102448.38;;;19.04
64916;BMP280;51427;-27.442;153.014;2023-08-24T09:04:05;102446.56;;;19.06
64916;BMP280;51427;-27.442;153.014;2023-08-24T09:06:34;102458.53;;;19.04
64916;BMP280;51427;-27.442;153.014;2023-08-24T09:09:01;102455.09;;;19.05
64916;BMP280;51427;-27.442;153.014;2023-08-24T09:11:29;102465.25;;;19.05
64916;BMP280;51427;-27.442;153.014;2023-08-24T09:13:56;102463.53;;;19.06
64916;BMP280;51427;-27.442;153.014;2023-08-24T09:16:23;102459.88;;;18.94
64916;BMP280;51427;-27.442;153.014;2023-08-24T09:18:55;102463.88;;;18.98
64916;BMP280;51427;-27.442;153.014;2023-08-24T09:21:24;102464.03;;;18.95
64916;BMP280;51427;-27.442;153.014;2023-08-24T09:23:55;102469.09;;;18.95
64916;BMP280;51427;-27.442;153.014;2023-08-24T09:26:29;102469.09;;;18.95
64916;BMP280;51427;-27.442;153.014;2023-08-24T09:28:57;102469.72;;;18.83
64916;BMP280;51427;-27.442;153.014;2023-08-24T09:31:35;102477.19;;;18.86
64916;BMP280;51427;-27.442;153.014;2023-08-24T09:34:03;102479.03;;;18.83
64916;BMP280;51427;-27.442;153.014;2023-08-24T09:36:35;102480.53;;;18.87
64916;BMP280;51427;-27.442;153.014;2023-08-24T09:39:04;102479.72;;;18.86
64916;BMP280;51427;-27.442;153.014;2023-08-24T09:41:43;102483.44;;;18.96
64916;BMP280;51427;-27.442;153.014;2023-08-24T09:44:10;102485.00;;;18.82
64916;BMP280;51427;-27.442;153.014;2023-08-24T09:46:41;102497.19;;;18.75
64916;BMP280;51427;-27.442;153.014;2023-08-24T09:49:10;102495.09;;;18.83
64916;BMP280;51427;-27.442;153.014;2023-08-24T09:51:40;102490.31;;;18.77
64916;BMP280;51427;-27.442;153.014;2023-08-24T09:54:11;102493.44;;;18.82
64916;BMP280;51427;-27.442;153.014;2023-08-24T09:56:40;102493.66;;;18.78
64916;BMP280;51427;-27.442;153.014;2023-08-24T09:59:16;102496.34;;;18.75
64916;BMP280;51427;-27.442;153.014;2023-08-24T10:01:48;102500.44;;;18.77
64916;BMP280;51427;-27.442;153.014;2023-08-24T10:04:23;102502.47;;;18.71
64916;BMP280;51427;-27.442;153.014;2023-08-24T10:07:08;102507.47;;;18.72
64916;BMP280;51427;-27.442;153.014;2023-08-24T10:10:00;102509.09;;;18.73
64916;BMP280;51427;-27.442;153.014;2023-08-24T10:12:32;102509.47;;;18.66
64916;BMP280;51427;-27.442;153.014;2023-08-24T10:15:02;102511.94;;;18.67
64916;BMP280;51427;-27.442;153.014;2023-08-24T10:17:33;102525.44;;;18.68
64916;BMP280;51427;-27.442;153.014;2023-08-24T10:20:01;102517.00;;;18.67
64916;BMP280;51427;-27.442;153.014;2023-08-24T10:22:35;102528.31;;;18.60
64916;BMP280;51427;-27.442;153.014;2023-08-24T10:25:06;102530.06;;;18.60
64916;BMP280;51427;-27.442;153.014;2023-08-24T10:27:35;102529.97;;;18.61
64916;BMP280;51427;-27.442;153.014;2023-08-24T10:30:02;102537.94;;;18.54
64916;BMP280;51427;-27.442;153.014;2023-08-24T10:32:30;102537.81;;;18.57
64916;BMP280;51427;-27.442;153.014;2023-08-24T10:34:58;102547.13;;;18.57
64916;BMP280;51427;-27.442;153.014;2023-08-24T10:37:27;102536.22;;;18.55
64916;BMP280;51427;-27.442;153.014;2023-08-24T10:39:54;102547.94;;;18.57
64916;BMP280;51427;-27.442;153.014;2023-08-24T10:42:22;102545.47;;;18.56
64916;BMP280;51427;-27.442;153.014;2023-08-24T10:44:49;102545.63;;;18.53
64916;BMP280;51427;-27.442;153.014;2023-08-24T10:47:20;102557.03;;;18.44
64916;BMP280;51427;-27.442;153.014;2023-08-24T10:52:31;102555.56;;;18.39
64916;BMP280;51427;-27.442;153.014;2023-08-24T10:55:03;102548.78;;;18.39
64916;BMP280;51427;-27.442;153.014;2023-08-24T10:57:39;102549.91;;;18.34
64916;BMP280;51427;-27.442;153.014;2023-08-24T11:00:11;102548.09;;;18.36
64916;BMP280;51427;-27.442;153.014;2023-08-24T11:02:50;102556.22;;;18.25
64916;BMP280;51427;-27.442;153.014;2023-08-24T11:05:19;102548.53;;;18.27
64916;BMP280;51427;-27.442;153.014;2023-08-24T11:07:56;102552.91;;;18.23
64916;BMP280;51427;-27.442;153.014;2023-08-24T11:10:25;102552.97;;;18.22
64916;BMP280;51427;-27.442;153.014;2023-08-24T11:13:05;102547.31;;;18.17
64916;BMP280;51427;-27.442;153.014;2023-08-24T11:15:54;102548.50;;;18.09
64916;BMP280;51427;-27.442;153.014;2023-08-24T11:18:28;102545.06;;;18.10
64916;BMP280;51427;-27.442;153.014;2023-08-24T11:21:04;102552.59;;;18.11
64916;BMP280;51427;-27.442;153.014;2023-08-24T11:23:32;102562.47;;;17.99
64916;BMP280;51427;-27.442;153.014;2023-08-24T11:26:00;102552.38;;;17.97
64916;BMP280;51427;-27.442;153.014;2023-08-24T11:28:29;102552.63;;;17.93
64916;BMP280;51427;-27.442;153.014;2023-08-24T11:30:58;102553.16;;;17.99
64916;BMP280;51427;-27.442;153.014;2023-08-24T11:33:35;102545.56;;;17.99
64916;BMP280;51427;-27.442;153.014;2023-08-24T11:36:05;102554.94;;;17.97
64916;BMP280;51427;-27.442;153.014;2023-08-24T11:38:41;102552.94;;;17.85
64916;BMP280;51427;-27.442;153.014;2023-08-24T11:43:39;102550.16;;;17.91
64916;BMP280;51427;-27.442;153.014;2023-08-24T11:46:06;102550.34;;;17.87
64916;BMP280;51427;-27.442;153.014;2023-08-24T11:48:33;102553.00;;;17.84
64916;BMP280;51427;-27.442;153.014;2023-08-24T11:51:03;102546.34;;;17.81
64916;BMP280;51427;-27.442;153.014;2023-08-24T11:53:30;102554.22;;;17.75
64916;BMP280;51427;-27.442;153.014;2023-08-24T11:55:59;102545.47;;;17.82
64916;BMP280;51427;-27.442;153.014;2023-08-24T11:58:28;102542.28;;;17.79
64916;BMP280;51427;-27.442;153.014;2023-08-24T12:00:55;102552.59;;;17.74
64916;BMP280;51427;-27.442;153.014;2023-08-24T12:03:23;102547.81;;;17.87
64916;BMP280;51427;-27.442;153.014;2023-08-24T12:05:51;102549.88;;;17.79
64916;BMP280;51427;-27.442;153.014;2023-08-24T12:08:18;102547.91;;;17.66
64916;BMP280;51427;-27.442;153.014;2023-08-24T12:10:45;102548.66;;;17.67
64916;BMP280;51427;-27.442;153.014;2023-08-24T12:13:12;102552.84;;;17.68
64916;BMP280;51427;-27.442;153.014;2023-08-24T12:15:40;102547.66;;;17.71
64916;BMP280;51427;-27.442;153.014;2023-08-24T12:18:12;102548.09;;;17.81
64916;BMP280;51427;-27.442;153.014;2023-08-24T12:20:42;102545.56;;;17.61
64916;BMP280;51427;-27.442;153.014;2023-08-24T12:23:11;102549.22;;;17.56
64916;BMP280;51427;-27.442;153.014;2023-08-24T12:25:42;102545.09;;;17.53
64916;BMP280;51427;-27.442;153.014;2023-08-24T12:28:13;102543.66;;;17.48
64916;BMP280;51427;-27.442;153.014;2023-08-24T12:30:45;102542.75;;;17.49
64916;BMP280;51427;-27.442;153.014;2023-08-24T12:35:49;102535.28;;;17.46
64916;BMP280;51427;-27.442;153.014;2023-08-24T12:38:17;102538.72;;;17.45
64916;BMP280;51427;-27.442;153.014;2023-08-24T12:40:44;102530.34;;;17.43
64916;BMP280;51427;-27.442;153.014;2023-08-24T12:43:11;102527.69;;;17.46
64916;BMP280;51427;-27.442;153.014;2023-08-24T12:45:39;102525.88;;;17.49
64916;BMP280;51427;-27.442;153.014;2023-08-24T12:48:07;102514.22;;;17.45
64916;BMP280;51427;-27.442;153.014;2023-08-24T12:50:35;102528.41;;;17.49
64916;BMP280;51427;-27.442;153.014;2023-08-24T12:53:03;102530.94;;;17.49
64916;BMP280;51427;-27.442;153.014;2023-08-24T12:55:38;102528.59;;;17.45
64916;BMP280;51427;-27.442;153.014;2023-08-24T12:58:05;102521.38;;;17.56
64916;BMP280;51427;-27.442;153.014;2023-08-24T13:00:33;102525.38;;;17.60
64916;BMP280;51427;-27.442;153.014;2023-08-24T13:03:00;102521.06;;;17.62
64916;BMP280;51427;-27.442;153.014;2023-08-24T13:05:27;102526.00;;;17.46
64916;BMP280;51427;-27.442;153.014;2023-08-24T13:07:55;102526.25;;;17.40
64916;BMP280;51427;-27.442;153.014;2023-08-24T13:10:23;102519.72;;;17.35
64916;BMP280;51427;-27.442;153.014;2023-08-24T13:12:51;102525.94;;;17.48
64916;BMP280;51427;-27.442;153.014;2023-08-24T13:15:18;102518.97;;;17.33
64916;BMP280;51427;-27.442;153.014;2023-08-24T13:17:47;102513.03;;;17.34
64916;BMP280;51427;-27.442;153.014;2023-08-24T13:20:15;102521.06;;;17.23
64916;BMP280;51427;-27.442;153.014;2023-08-24T13:22:42;102525.59;;;17.16
64916;BMP280;51427;-27.442;153.014;2023-08-24T13:25:10;102526.06;;;17.25
64916;BMP280;51427;-27.442;153.014;2023-08-24T13:27:37;102534.00;;;17.16
64916;BMP280;51427;-27.442;153.014;2023-08-24T13:30:05;102528.72;;;17.01
64916;BMP280;51427;-27.442;153.014;2023-08-24T13:32:32;102523.63;;;17.02
64916;BMP280;51427;-27.442;153.014;2023-08-24T13:35:02;102525.63;;;16.94
64916;BMP280;51427;-27.442;153.014;2023-08-24T13:37:29;102522.47;;;16.89
64916;BMP280;51427;-27.442;153.014;2023-08-24T13:39:58;102527.34;;;16.94
64916;BMP280;51427;-27.442;153.014;2023-08-24T13:42:26;102520.81;;;16.88
64916;BMP280;51427;-27.442;153.014;2023-08-24T13:44:53;102516.41;;;16.93
64916;BMP280;51427;-27.442;153.014;2023-08-24T13:47:20;102518.56;;;16.82
64916;BMP280;51427;-27.442;153.014;2023-08-24T13:49:48;102520.53;;;16.75